Time;durP1;ratioP1;P1;durP2;ratioP2;P2;SDS_P1;SDS_P2;PMS_P1;PMS_P2;Temp;Humidity;BMP_temperature;BMP_pressure;BME280_temperature;BME280_humidity;BME280_pressure;Samples;Min_cycle;Max_cycle;Signal;HPM_P1;HPM_P2
2022/06/02 00:00:05;;;;;;;12.73;8.13;;;19.40;99.90;;;;;;5095444;28;20024;-87
2022/06/02 00:03:23;;;;;;;8.63;6.97;;;19.30;99.90;;;;;;5095149;28;20497;-87
2022/06/02 00:06:02;;;;;;;11.18;7.82;;;19.30;99.90;;;;;;5096749;28;20059;-87
2022/06/02 00:08:56;;;;;;;10.32;7.57;;;19.20;99.90;;;;;;5096697;28;20024;-87
2022/06/02 00:12:02;;;;;;;12.55;8.05;;;19.20;99.90;;;;;;5095305;28;20030;-87
2022/06/02 00:14:55;;;;;;;11.27;8.63;;;19.10;99.90;;;;;;5095374;28;20065;-86
2022/06/02 00:17:43;;;;;;;13.05;7.55;;;19.00;99.90;;;;;;5095240;28;20080;-87
2022/06/02 00:20:14;;;;;;;9.57;7.13;;;19.00;99.90;;;;;;5095161;28;20110;-87
2022/06/02 00:23:05;;;;;;;9.63;7.65;;;18.90;99.90;;;;;;5094761;28;20093;-87
2022/06/02 00:25:40;;;;;;;10.40;7.18;;;18.90;99.90;;;;;;5094923;28;20016;-87
2022/06/02 00:28:34;;;;;;;13.10;7.97;;;18.90;99.90;;;;;;5095018;28;20024;-87
2022/06/02 00:31:20;;;;;;;11.25;7.75;;;18.80;99.90;;;;;;5094509;28;20024;-87
2022/06/02 00:34:02;;;;;;;12.90;7.85;;;18.70;99.90;;;;;;5094718;28;20110;-87
2022/06/02 00:36:37;;;;;;;13.27;7.70;;;18.70;99.90;;;;;;5094779;28;20074;-87
2022/06/02 00:39:03;;;;;;;14.05;8.15;;;18.80;99.90;;;;;;5095942;28;20028;-87
2022/06/02 00:41:49;;;;;;;13.52;7.57;;;18.80;99.90;;;;;;5095639;28;20034;-87
2022/06/02 00:44:20;;;;;;;10.38;7.60;;;18.80;99.90;;;;;;5094034;28;20055;-87
2022/06/02 00:46:55;;;;;;;11.30;7.78;;;18.80;99.90;;;;;;5094353;28;20028;-87
2022/06/02 00:49:49;;;;;;;14.18;7.65;;;18.70;99.90;;;;;;5095783;28;20020;-87
2022/06/02 00:52:15;;;;;;;13.98;7.93;;;18.70;99.90;;;;;;5091199;28;20041;-87
2022/06/02 00:57:37;;;;;;;13.85;8.38;;;18.60;99.90;;;;;;5095333;28;20103;-87
2022/06/02 01:00:39;;;;;;;11.40;8.30;;;18.50;99.90;;;;;;5093964;28;20055;-87
2022/06/02 01:03:19;;;;;;;12.30;8.82;;;18.50;99.90;;;;;;5090445;28;20039;-87
2022/06/02 01:06:14;;;;;;;12.75;7.82;;;18.50;99.90;;;;;;5094461;28;20111;-87
2022/06/02 01:08:52;;;;;;;11.65;8.05;;;18.40;99.90;;;;;;5093907;28;20032;-87
2022/06/02 01:11:37;;;;;;;14.75;8.55;;;18.40;99.90;;;;;;5094144;28;20031;-87
2022/06/02 01:14:31;;;;;;;12.52;8.35;;;18.40;99.90;;;;;;5094173;28;20020;-87
2022/06/02 01:17:27;;;;;;;12.93;8.43;;;18.30;99.90;;;;;;5094277;28;20480;-87
2022/06/02 01:20:20;;;;;;;11.35;8.45;;;18.30;99.90;;;;;;5094025;28;20553;-87
2022/06/02 01:23:16;;;;;;;11.77;8.75;;;18.20;99.90;;;;;;5093717;28;20104;-87
2022/06/02 01:25:47;;;;;;;11.40;8.90;;;18.20;99.90;;;;;;5093949;28;20024;-87
2022/06/02 01:28:37;;;;;;;12.43;9.20;;;18.20;99.90;;;;;;5095216;28;20031;-87
2022/06/02 01:31:03;;;;;;;;;;;18.10;99.90;;;;;;5094164;28;20035;-87
2022/06/02 01:33:50;;;;;;;10.35;7.82;;;18.10;99.90;;;;;;5093677;28;19904;-87
2022/06/02 01:36:47;;;;;;;12.65;9.20;;;18.10;99.90;;;;;;5093583;28;20028;-88
2022/06/02 01:39:31;;;;;;;14.88;8.65;;;18.00;99.90;;;;;;5093696;28;20036;-87
2022/06/02 01:42:17;;;;;;;13.25;8.38;;;18.00;99.90;;;;;;5093802;28;20115;-87
2022/06/02 01:45:05;;;;;;;13.65;10.15;;;18.00;99.90;;;;;;5093404;28;20055;-87
2022/06/02 01:47:43;;;;;;;23.60;10.70;;;17.90;99.90;;;;;;5093559;28;20016;-87
2022/06/02 01:50:19;;;;;;;15.75;9.70;;;18.00;99.90;;;;;;5093385;28;20427;-87
2022/06/02 01:52:56;;;;;;;19.70;10.13;;;18.00;99.90;;;;;;5094717;28;20057;-87
2022/06/02 01:55:57;;;;;;;13.52;9.77;;;18.00;99.90;;;;;;5094624;28;20377;-87
2022/06/02 01:58:25;;;;;;;19.27;11.00;;;18.10;99.90;;;;;;5080368;28;20402;-88
2022/06/02 02:01:18;;;;;;;13.73;10.15;;;18.10;99.90;;;;;;5093288;28;20024;-87
2022/06/02 02:03:52;;;;;;;12.80;9.45;;;18.20;99.90;;;;;;5094435;28;20028;-87
2022/06/02 02:06:33;;;;;;;16.02;9.30;;;18.30;99.90;;;;;;5094538;28;20023;-87
2022/06/02 02:09:11;;;;;;;14.02;8.68;;;18.40;99.90;;;;;;5094586;28;20489;-87
2022/06/02 02:11:36;;;;;;;13.57;9.93;;;18.40;99.90;;;;;;5093422;28;20059;-87
2022/06/02 02:14:11;;;;;;;11.30;8.93;;;18.40;99.90;;;;;;5094378;28;20030;-87
2022/06/02 02:17:09;;;;;;;13.35;9.70;;;18.40;99.90;;;;;;5094452;28;20028;-87
2022/06/02 02:19:49;;;;;;;16.25;10.65;;;18.50;99.90;;;;;;5089907;28;20456;-87
2022/06/02 02:22:46;;;;;;;12.30;10.60;;;18.40;99.90;;;;;;5093860;28;20056;-87
2022/06/02 02:25:39;;;;;;;16.63;10.75;;;18.50;99.90;;;;;;5093134;28;20030;-87
2022/06/02 02:28:25;;;;;;;15.35;10.82;;;18.50;99.90;;;;;;5094325;28;20016;-87
2022/06/02 02:31:09;;;;;;;15.30;11.52;;;18.50;99.90;;;;;;5093190;28;20075;-87
2022/06/02 02:34:03;;;;;;;12.85;11.50;;;18.50;99.90;;;;;;5092914;28;20027;-87
2022/06/02 02:37:11;;;;;;;14.27;11.38;;;18.50;99.90;;;;;;5094185;28;20113;-87
2022/06/02 02:40:09;;;;;;;16.67;10.90;;;18.50;99.90;;;;;;5064803;28;20470;-87
2022/06/02 02:42:51;;;;;;;14.60;10.13;;;18.50;99.90;;;;;;5089835;28;20115;-87
2022/06/02 02:45:19;;;;;;;15.82;12.63;;;18.50;99.90;;;;;;5096268;28;20028;-87
2022/06/02 02:47:53;;;;;;;17.83;12.35;;;18.40;99.90;;;;;;5097181;28;20529;-87
2022/06/02 02:50:36;;;;;;;17.20;13.02;;;18.40;99.90;;;;;;5097961;28;20023;-87
2022/06/02 02:53:18;;;;;;;16.10;13.05;;;18.50;99.90;;;;;;5098307;28;20458;-87
2022/06/02 02:55:52;;;;;;;16.52;12.88;;;18.40;99.90;;;;;;5096842;28;20032;-87
2022/06/02 02:58:50;;;;;;;14.38;12.80;;;18.50;99.90;;;;;;5097978;28;20466;-87
2022/06/02 03:01:42;;;;;;;19.73;13.80;;;18.40;99.90;;;;;;5071768;28;20044;-87
2022/06/02 03:04:11;;;;;;;18.55;13.88;;;18.40;99.90;;;;;;5096894;28;20478;-87
2022/06/02 03:06:40;;;;;;;21.10;15.50;;;18.40;99.90;;;;;;5096971;28;20020;-87
2022/06/02 03:10:04;;;;;;;16.17;13.27;;;18.40;99.90;;;;;;5097786;28;20028;-87
2022/06/02 03:12:48;;;;;;;18.88;14.82;;;18.40;99.90;;;;;;5044407;28;20032;-87
2022/06/02 03:15:23;;;;;;;20.05;13.75;;;18.40;99.90;;;;;;5058639;28;20044;-87
2022/06/02 03:17:57;;;;;;;18.77;13.52;;;18.40;99.90;;;;;;5081959;28;20567;-87
2022/06/02 03:20:46;;;;;;;18.67;13.20;;;18.40;99.90;;;;;;5097362;28;20047;-87
2022/06/02 03:23:11;;;;;;;14.17;12.67;;;18.40;99.90;;;;;;5095782;28;20040;-87
2022/06/02 03:25:52;;;;;;;18.20;13.43;;;18.40;99.90;;;;;;5097252;28;20462;-87
2022/06/02 03:28:29;;;;;;;19.75;14.75;;;18.50;99.90;;;;;;5096938;28;20024;-87
2022/06/02 03:31:28;;;;;;;17.55;14.23;;;18.50;99.90;;;;;;5095836;28;20020;-87
2022/06/02 03:34:12;;;;;;;17.83;13.63;;;18.60;99.90;;;;;;5095997;28;20039;-87
2022/06/02 03:37:12;;;;;;;20.05;13.40;;;18.70;99.90;;;;;;5095908;28;20435;-87
2022/06/02 03:39:53;;;;;;;16.73;13.43;;;18.80;99.90;;;;;;5096910;28;20051;-87
2022/06/02 03:42:27;;;;;;;16.10;13.75;;;18.80;99.90;;;;;;5095808;28;20060;-87
2022/06/02 03:44:53;;;;;;;16.45;13.32;;;19.00;99.90;;;;;;5096914;28;20470;-87
2022/06/02 03:47:31;;;;;;;16.38;13.23;;;19.00;99.90;;;;;;5095716;28;20078;-87
2022/06/02 03:50:11;;;;;;;18.00;13.00;;;19.10;99.90;;;;;;5095488;28;20020;-87
2022/06/02 03:52:57;;;;;;;18.00;13.73;;;19.20;99.90;;;;;;5096481;28;20020;-86
2022/06/02 03:55:32;;;;;;;17.85;11.70;;;19.30;99.90;;;;;;5094370;28;20066;-87
2022/06/02 03:58:22;;;;;;;14.18;12.35;;;19.40;99.90;;;;;;5095457;28;20027;-87
2022/06/02 04:01:01;;;;;;;15.77;12.48;;;19.50;99.90;;;;;;5095606;28;20386;-87
2022/06/02 04:03:45;;;;;;;15.25;12.48;;;19.60;99.90;;;;;;5095608;28;20101;-87
2022/06/02 04:06:58;;;;;;;18.23;12.88;;;19.60;99.90;;;;;;5095311;28;20378;-87
2022/06/02 04:10:13;;;;;;;14.95;13.32;;;19.70;99.90;;;;;;5095596;28;20020;-87
2022/06/02 04:16:29;;;;;;;16.95;11.45;;;20.00;99.90;;;;;;5096907;28;20560;-87
2022/06/02 04:18:54;;;;;;;17.92;11.90;;;20.10;99.90;;;;;;5033964;28;20037;-87
2022/06/02 04:21:47;;;;;;;15.05;10.43;;;20.30;99.90;;;;;;5017435;28;20044;-86
2022/06/02 04:24:30;;;;;;;14.88;11.60;;;20.40;99.90;;;;;;5066532;28;20079;-87
2022/06/02 04:27:08;;;;;;;19.58;11.60;;;20.60;99.90;;;;;;5096239;28;20490;-87
2022/06/02 04:29:51;;;;;;;14.63;10.77;;;20.70;99.90;;;;;;5094971;28;20078;-87
2022/06/02 04:32:43;;;;;;;13.73;10.80;;;20.90;99.90;;;;;;5096144;28;20016;-87
2022/06/02 04:35:38;;;;;;;18.50;11.05;;;21.00;99.90;;;;;;5096185;28;20032;-87
2022/06/02 04:38:10;;;;;;;16.02;11.70;;;21.20;99.90;;;;;;5096150;28;20521;-87
2022/06/02 04:40:57;;;;;;;13.77;10.90;;;21.40;99.90;;;;;;5094845;28;20032;-87
2022/06/02 04:43:44;;;;;;;15.63;10.55;;;21.50;99.90;;;;;;5096154;28;20470;-88
2022/06/02 04:46:39;;;;;;;16.02;10.02;;;21.70;99.90;;;;;;5095983;28;20029;-88
2022/06/02 04:49:31;;;;;;;13.68;9.38;;;21.90;99.90;;;;;;5096158;28;20431;-88
2022/06/02 04:52:20;;;;;;;12.48;9.07;;;22.10;99.90;;;;;;5095093;28;20020;-88
2022/06/02 04:55:04;;;;;;;13.30;9.30;;;22.20;99.90;;;;;;5094766;28;20020;-88
2022/06/02 04:57:38;;;;;;;13.48;9.13;;;22.40;99.90;;;;;;5094419;28;20027;-88
2022/06/02 05:00:18;;;;;;;13.65;9.40;;;22.60;99.90;;;;;;5094486;28;20115;-88
2022/06/02 05:03:02;;;;;;;11.63;8.43;;;22.70;99.80;;;;;;5095712;28;20043;-88
2022/06/02 05:05:59;;;;;;;12.70;8.65;;;22.80;99.50;;;;;;5094529;28;20020;-88
2022/06/02 05:08:44;;;;;;;13.38;8.52;;;23.00;99.20;;;;;;5093896;28;20028;-88
2022/06/02 05:11:23;;;;;;;10.90;7.72;;;23.10;98.50;;;;;;5095038;28;20413;-88
2022/06/02 05:14:13;;;;;;;14.13;8.90;;;23.20;98.10;;;;;;5094351;28;20027;-88
2022/06/02 05:16:42;;;;;;;;;;;23.20;97.40;;;;;;5094623;28;20035;-88
2022/06/02 05:19:26;;;;;;;13.60;8.45;;;23.30;96.80;;;;;;5094055;28;19948;-88
2022/06/02 05:22:14;;;;;;;13.88;8.70;;;23.30;96.70;;;;;;5093944;28;20052;-87
2022/06/02 05:25:03;;;;;;;13.43;8.35;;;23.30;96.40;;;;;;5093990;28;20073;-88
2022/06/02 05:27:47;;;;;;;;;;;23.40;96.50;;;;;;5095317;28;20012;-87
2022/06/02 05:30:25;;;;;;;13.23;8.63;;;23.40;97.10;;;;;;5093988;28;20250;-87
2022/06/02 05:33:03;;;;;;;13.05;8.32;;;23.40;96.50;;;;;;5093986;28;20115;-87
2022/06/02 05:35:40;;;;;;;15.65;9.48;;;23.50;95.80;;;;;;5094073;28;20024;-87
2022/06/02 05:38:27;;;;;;;12.77;8.65;;;23.50;95.80;;;;;;5093725;28;20020;-87
2022/06/02 05:41:21;;;;;;;14.98;9.13;;;23.50;95.40;;;;;;5093584;28;20477;-86
2022/06/02 05:43:56;;;;;;;13.05;8.23;;;23.50;95.40;;;;;;5087562;28;20505;-87
2022/06/02 05:46:22;;;;;;;16.83;8.02;;;23.50;95.50;;;;;;5093518;28;20073;-87
2022/06/02 05:49:12;;;;;;;14.32;8.40;;;23.60;95.10;;;;;;5094433;28;20020;-87
2022/06/02 05:51:46;;;;;;;14.48;8.15;;;23.50;95.10;;;;;;5094729;28;20078;-87
2022/06/02 05:54:38;;;;;;;9.52;7.70;;;23.70;95.40;;;;;;5094776;28;20028;-87
2022/06/02 05:57:26;;;;;;;11.82;8.20;;;23.70;95.10;;;;;;5089109;28;20027;-87
2022/06/02 06:00:11;;;;;;;16.23;8.02;;;23.80;94.80;;;;;;5093368;28;20020;-87
2022/06/02 06:02:39;;;;;;;12.63;7.57;;;23.90;94.00;;;;;;5093275;28;20116;-87
2022/06/02 06:05:27;;;;;;;14.20;7.63;;;24.00;94.50;;;;;;5093212;28;20137;-87
2022/06/02 06:08:05;;;;;;;12.98;7.82;;;24.10;93.60;;;;;;5093201;28;20448;-87
2022/06/02 06:10:57;;;;;;;11.38;8.07;;;24.20;94.30;;;;;;5093219;28;20032;-87
2022/06/02 06:13:44;;;;;;;16.00;8.35;;;24.20;93.90;;;;;;5093133;28;20028;-87
2022/06/02 06:16:30;;;;;;;13.38;8.77;;;24.20;93.40;;;;;;5093077;28;20024;-87
2022/06/02 06:18:58;;;;;;;14.50;7.65;;;24.20;93.30;;;;;;5093289;28;20028;-87
2022/06/02 06:21:53;;;;;;;11.70;8.32;;;24.30;93.30;;;;;;5092827;28;20020;-86
2022/06/02 06:24:27;;;;;;;12.23;8.55;;;24.30;93.20;;;;;;5092957;28;20032;-87
2022/06/02 06:27:11;;;;;;;12.13;8.35;;;24.30;93.50;;;;;;5093067;28;20032;-87
2022/06/02 06:30:01;;;;;;;12.02;9.07;;;24.30;93.40;;;;;;5092984;28;20020;-87
2022/06/02 06:32:52;;;;;;;12.60;8.65;;;24.40;93.80;;;;;;5092980;28;20109;-87
2022/06/02 06:35:40;;;;;;;15.15;8.25;;;24.50;93.60;;;;;;5092946;28;20032;-87
2022/06/02 06:38:22;;;;;;;14.30;8.40;;;24.60;93.60;;;;;;5093195;28;20460;-87
2022/06/02 06:41:18;;;;;;;14.65;7.88;;;24.80;93.80;;;;;;5092935;28;20036;-87
2022/06/02 06:44:14;;;;;;;11.05;8.77;;;24.90;93.50;;;;;;5092862;28;20434;-88
2022/06/02 06:47:06;;;;;;;13.98;8.95;;;25.00;93.30;;;;;;5092672;28;20089;-87
2022/06/02 06:50:07;;;;;;;12.85;9.07;;;25.10;93.10;;;;;;5094040;28;20030;-87
2022/06/02 06:52:50;;;;;;;12.88;9.57;;;25.00;92.70;;;;;;5092644;28;20032;-87
2022/06/02 06:55:53;;;;;;;11.65;9.63;;;25.10;93.00;;;;;;5093848;28;20362;-88
2022/06/02 06:58:56;;;;;;;15.55;9.50;;;25.10;93.20;;;;;;5092841;28;20020;-88
2022/06/02 07:01:36;;;;;;;12.35;8.70;;;25.30;93.40;;;;;;5092795;28;20028;-87
2022/06/02 07:04:26;;;;;;;13.70;9.32;;;25.40;93.40;;;;;;5093723;28;20020;-88
2022/06/02 07:07:18;;;;;;;18.33;10.38;;;25.40;93.30;;;;;;5092813;28;20048;-88
2022/06/02 07:10:00;;;;;;;15.32;9.30;;;25.50;93.30;;;;;;5094045;28;20020;-88
2022/06/02 07:12:51;;;;;;;16.05;9.82;;;25.50;93.20;;;;;;5092611;28;20032;-88
2022/06/02 07:15:29;;;;;;;13.15;8.77;;;25.60;93.10;;;;;;5093729;28;20073;-88
2022/06/02 07:18:03;;;;;;;15.35;8.38;;;25.60;93.20;;;;;;5093636;28;20462;-88
2022/06/02 07:20:37;;;;;;;12.77;8.27;;;25.70;93.10;;;;;;5092510;28;20359;-87
2022/06/02 07:23:24;;;;;;;13.15;8.23;;;25.80;92.60;;;;;;5093363;28;20063;-88
2022/06/02 07:26:28;;;;;;;12.77;7.40;;;25.80;91.40;;;;;;5092450;28;20020;-88
2022/06/02 07:28:54;;;;;;;12.35;6.68;;;25.90;91.60;;;;;;5093565;28;20465;-87
2022/06/02 07:32:05;;;;;;;14.70;6.80;;;25.90;90.60;;;;;;5096712;28;20024;-87
2022/06/02 07:34:34;;;;;;;11.18;5.95;;;25.90;88.20;;;;;;5096072;28;20016;-88
2022/06/02 07:37:30;;;;;;;9.00;5.38;;;25.90;88.50;;;;;;5097222;28;20080;-87
2022/06/02 07:40:14;;;;;;;7.93;5.10;;;26.00;86.00;;;;;;5097247;28;20381;-88
2022/06/02 07:42:58;;;;;;;10.70;4.90;;;26.10;86.30;;;;;;5095766;28;20028;-86
2022/06/02 07:46:10;;;;;;;7.95;5.07;;;26.20;84.60;;;;;;5095860;28;20024;-87
2022/06/02 07:48:44;;;;;;;9.45;5.50;;;26.20;83.70;;;;;;5095773;28;20417;-87
2022/06/02 07:51:26;;;;;;;8.77;5.40;;;26.30;80.00;;;;;;5095649;28;20055;-87
2022/06/02 07:54:49;;;;;;;12.63;5.28;;;26.30;82.10;;;;;;5095592;28;20028;-87
2022/06/02 07:57:44;;;;;;;9.65;5.80;;;26.40;81.30;;;;;;5034763;28;20151;-87
2022/06/02 08:00:13;;;;;;;5.88;4.80;;;26.50;82.20;;;;;;5034939;28;20037;-87
2022/06/02 08:02:56;;;;;;;8.35;5.20;;;26.50;81.80;;;;;;5070119;28;20039;-87
2022/06/02 08:05:31;;;;;;;9.10;5.25;;;26.60;81.10;;;;;;5096540;28;20043;-87
2022/06/02 08:08:10;;;;;;;8.35;5.20;;;26.60;80.70;;;;;;5095236;28;20107;-87
2022/06/02 08:10:44;;;;;;;10.90;4.47;;;26.70;80.20;;;;;;5095395;28;20020;-87
2022/06/02 08:13:28;;;;;;;9.60;4.57;;;26.70;80.10;;;;;;5096528;28;20028;-88
2022/06/02 08:16:15;;;;;;;10.90;4.68;;;26.90;79.80;;;;;;5096555;28;20032;-87
2022/06/02 08:18:49;;;;;;;9.20;4.75;;;26.90;79.20;;;;;;5095387;28;20437;-87
2022/06/02 08:21:47;;;;;;;12.25;4.43;;;26.90;79.60;;;;;;5095206;28;20069;-87
2022/06/02 08:24:33;;;;;;;7.28;4.13;;;27.00;78.60;;;;;;5087488;28;20603;-88
2022/06/02 08:27:06;;;;;;;5.80;4.55;;;27.10;79.40;;;;;;5096464;28;20027;-87
2022/06/02 08:29:53;;;;;;;8.75;4.45;;;27.10;79.30;;;;;;5094852;28;20028;-86
2022/06/02 08:32:37;;;;;;;7.90;4.47;;;27.10;77.90;;;;;;5096196;28;20016;-88
2022/06/02 08:35:06;;;;;;;9.38;4.57;;;27.20;77.50;;;;;;5096130;28;20024;-87
2022/06/02 08:38:07;;;;;;;19.33;4.65;;;27.20;78.00;;;;;;5094732;28;20458;-87
2022/06/02 08:44:09;;;;;;;6.13;4.57;;;27.30;77.50;;;;;;5095769;28;20058;-87
2022/06/02 08:46:53;;;;;;;7.93;4.78;;;27.40;77.00;;;;;;5094619;28;20028;-87
2022/06/02 08:49:39;;;;;;;9.25;4.88;;;27.40;75.90;;;;;;5095826;28;20451;-88
2022/06/02 08:52:26;;;;;;;8.20;4.35;;;27.50;77.40;;;;;;5095820;28;20020;-87
2022/06/02 08:55:29;;;;;;;8.40;4.20;;;27.50;76.70;;;;;;5095672;28;20050;-88
2022/06/02 08:58:14;;;;;;;10.88;5.10;;;27.60;77.00;;;;;;5095564;28;20016;-87
2022/06/02 09:00:49;;;;;;;9.23;4.60;;;27.60;76.40;;;;;;5063774;28;20025;-87
2022/06/02 09:03:36;;;;;;;6.85;4.28;;;27.60;76.80;;;;;;5094246;28;20032;-87
2022/06/02 09:06:50;;;;;;;6.75;4.60;;;27.60;74.80;;;;;;5094489;28;20427;-88
2022/06/02 09:10:04;;;;;;;6.72;3.90;;;27.70;75.50;;;;;;5095540;28;20099;-87
2022/06/02 09:12:51;;;;;;;8.88;4.13;;;27.80;74.80;;;;;;5089695;28;20040;-87
2022/06/02 09:15:38;;;;;;;6.95;4.15;;;27.80;74.10;;;;;;5093925;28;20028;-87
2022/06/02 09:18:10;;;;;;;7.60;4.18;;;27.90;74.00;;;;;;5094138;28;20177;-87
2022/06/02 09:20:42;;;;;;;9.63;4.55;;;27.90;73.10;;;;;;5093841;28;20482;-87
2022/06/02 09:23:37;;;;;;;10.23;4.68;;;28.00;73.60;;;;;;5093695;28;20051;-87
2022/06/02 09:26:13;;;;;;;9.40;4.60;;;28.00;73.50;;;;;;5084372;28;20034;-87
2022/06/02 09:28:50;;;;;;;10.98;5.15;;;28.00;73.10;;;;;;5095021;28;20031;-87
2022/06/02 09:31:42;;;;;;;6.97;4.40;;;28.00;73.10;;;;;;5093690;28;20061;-88
2022/06/02 09:34:45;;;;;;;10.35;4.28;;;28.10;72.50;;;;;;5094965;28;20016;-88
2022/06/02 09:37:48;;;;;;;8.27;4.13;;;28.10;73.90;;;;;;5093602;28;20020;-87
2022/06/02 09:40:24;;;;;;;6.97;4.60;;;28.10;73.90;;;;;;5093402;28;20035;-88
2022/06/02 09:43:36;;;;;;;8.45;4.30;;;28.20;72.60;;;;;;5094501;28;20028;-87
2022/06/02 09:46:16;;;;;;;12.35;4.95;;;28.10;70.90;;;;;;5015646;28;20025;-86
2022/06/02 09:49:10;;;;;;;6.45;3.88;;;28.10;70.70;;;;;;5015912;28;20021;-88
2022/06/02 09:52:00;;;;;;;5.63;3.80;;;28.10;71.40;;;;;;5078087;28;20035;-87
2022/06/02 09:54:55;;;;;;;9.02;4.53;;;28.10;71.10;;;;;;5092943;28;20016;-87
2022/06/02 10:00:18;;;;;;;9.75;4.57;;;28.20;71.40;;;;;;5094380;28;20551;-87
2022/06/02 10:03:02;;;;;;;10.10;4.43;;;28.20;71.20;;;;;;5093435;28;20036;-87
2022/06/02 10:05:51;;;;;;;7.07;4.38;;;28.30;72.60;;;;;;5093107;28;20025;-87
2022/06/02 10:08:39;;;;;;;10.93;5.00;;;28.30;72.90;;;;;;5094599;28;20016;-88
2022/06/02 10:11:38;;;;;;;14.23;4.72;;;28.20;72.80;;;;;;5094200;28;20024;-87
2022/06/02 10:14:07;;;;;;;12.20;4.70;;;28.30;73.30;;;;;;5094488;28;20480;-87
2022/06/02 10:16:51;;;;;;;28.20;5.33;;;28.30;73.30;;;;;;5093351;28;20038;-87
2022/06/02 10:19:38;;;;;;;10.45;4.40;;;28.30;73.50;;;;;;5093098;28;20028;-87
2022/06/02 10:22:25;;;;;;;17.05;4.80;;;28.40;75.00;;;;;;5092723;28;20455;-87
2022/06/02 10:25:28;;;;;;;9.55;4.40;;;28.50;74.50;;;;;;5094031;28;20367;-86
2022/06/02 10:28:12;;;;;;;7.57;4.05;;;28.50;72.70;;;;;;5092872;28;20458;-87
2022/06/02 10:30:46;;;;;;;11.90;4.30;;;28.50;73.80;;;;;;5093070;28;20031;-87
2022/06/02 10:34:03;;;;;;;10.88;4.68;;;28.60;73.80;;;;;;5092883;28;20024;-87
2022/06/02 10:36:50;;;;;;;9.18;4.28;;;28.70;72.60;;;;;;5067438;28;20036;-87
2022/06/02 10:39:45;;;;;;;10.48;4.43;;;28.60;71.30;;;;;;5092856;28;20032;-87
2022/06/02 10:42:23;;;;;;;9.30;4.28;;;28.60;70.50;;;;;;5092619;28;20492;-88
2022/06/02 10:44:57;;;;;;;10.48;3.83;;;28.70;70.70;;;;;;5092932;28;20471;-87
2022/06/02 10:47:50;;;;;;;9.00;3.90;;;28.90;69.30;;;;;;5092950;28;20024;-87
2022/06/02 10:50:38;;;;;;;6.10;3.75;;;28.90;67.60;;;;;;5092857;28;20031;-88
2022/06/02 10:53:49;;;;;;;11.13;5.38;;;28.90;68.20;;;;;;5094113;28;20020;-87
2022/06/02 10:56:32;;;;;;;9.18;3.90;;;29.00;67.60;;;;;;5089934;28;20386;-87
2022/06/02 10:59:38;;;;;;;11.25;3.75;;;29.10;68.30;;;;;;5092931;28;20420;-87
2022/06/02 11:02:31;;;;;;;7.57;3.75;;;29.10;66.70;;;;;;5093934;28;20055;-88
2022/06/02 11:05:21;;;;;;;6.55;3.83;;;29.20;65.40;;;;;;5093730;28;20478;-87
2022/06/02 11:08:24;;;;;;;8.35;3.45;;;29.10;64.30;;;;;;5097939;28;20031;-87
2022/06/02 11:11:21;;;;;;;8.95;3.60;;;29.10;62.30;;;;;;5079730;28;20028;-87
2022/06/02 11:14:25;;;;;;;4.90;3.75;;;29.20;62.90;;;;;;5097754;28;20035;-88
2022/06/02 11:16:56;;;;;;;6.88;3.30;;;29.20;63.50;;;;;;5096765;28;20414;-87
2022/06/02 11:19:43;;;;;;;7.80;3.65;;;29.30;64.10;;;;;;5096655;28;20020;-88
2022/06/02 11:22:14;;;;;;;5.57;3.42;;;29.40;64.90;;;;;;5096042;28;20052;-88
2022/06/02 11:24:59;;;;;;;9.65;3.80;;;29.50;64.20;;;;;;5096276;28;20119;-88
2022/06/02 11:27:33;;;;;;;8.93;3.45;;;29.50;64.80;;;;;;5096305;28;20424;-87
2022/06/02 11:30:17;;;;;;;14.48;3.85;;;29.50;64.50;;;;;;5097194;28;20103;-87
2022/06/02 11:32:59;;;;;;;7.47;3.33;;;29.50;61.60;;;;;;5097510;28;20028;-87
2022/06/02 11:35:49;;;;;;;6.20;3.42;;;29.50;63.20;;;;;;5096402;28;20533;-88
2022/06/02 11:38:24;;;;;;;7.82;3.50;;;29.60;64.30;;;;;;5097313;28;20063;-88
2022/06/02 11:40:55;;;;;;;11.82;3.92;;;29.70;64.50;;;;;;5096073;28;20035;-88
2022/06/02 11:43:26;;;;;;;9.00;3.28;;;30.00;64.90;;;;;;5095932;28;20051;-89
2022/06/02 11:46:07;;;;;;;14.07;3.10;;;30.50;65.00;;;;;;5096148;28;20044;-88
2022/06/02 11:48:39;;;;;;;7.80;3.53;;;31.20;63.50;;;;;;5095722;28;20024;-86
2022/06/02 11:51:19;;;;;;;8.00;2.97;;;32.00;61.40;;;;;;5095672;28;20025;-86
2022/06/02 11:54:12;;;;;;;9.20;3.58;;;32.80;59.60;;;;;;5095457;28;20393;-86
2022/06/02 11:57:15;;;;;;;8.95;2.92;;;32.90;56.80;;;;;;5095677;28;20513;-85
2022/06/02 11:59:59;;;;;;;8.95;3.78;;;33.70;55.70;;;;;;5087272;28;20390;-86
2022/06/02 12:02:25;;;;;;;9.23;3.17;;;34.40;56.50;;;;;;5095455;28;20028;-86
2022/06/02 12:05:31;;;;;;;7.80;3.20;;;34.90;54.20;;;;;;5095492;28;20031;-85
2022/06/02 12:08:10;;;;;;;6.07;2.38;;;35.50;52.10;;;;;;5066400;28;20056;-86
2022/06/02 12:10:55;;;;;;;7.30;2.67;;;35.60;53.00;;;;;;5096596;28;20031;-85
2022/06/02 12:13:36;;;;;;;12.13;3.17;;;36.20;51.40;;;;;;5095118;28;20031;-85
2022/06/02 12:16:16;;;;;;;12.43;2.85;;;35.80;49.60;;;;;;5095707;28;20016;-85
2022/06/02 12:18:47;;;;;;;10.25;2.83;;;36.00;49.80;;;;;;5095054;28;20020;-85
2022/06/02 12:21:34;;;;;;;6.00;2.50;;;36.50;49.50;;;;;;5094969;28;20032;-85
2022/06/02 12:24:26;;;;;;;6.13;2.40;;;36.80;48.10;;;;;;5094755;28;20445;-86
2022/06/02 12:27:10;;;;;;;7.95;2.95;;;36.70;47.60;;;;;;5095993;28;20020;-86
2022/06/02 12:29:54;;;;;;;16.17;3.40;;;36.90;48.10;;;;;;5096001;28;20020;-86
2022/06/02 12:32:47;;;;;;;9.98;3.42;;;36.90;48.60;;;;;;5094745;28;20031;-86
2022/06/02 12:35:35;;;;;;;11.93;3.10;;;37.60;47.70;;;;;;5095964;28;20038;-86
2022/06/02 12:38:23;;;;;;;7.73;2.43;;;37.20;48.10;;;;;;5094574;28;20020;-86
2022/06/02 12:40:49;;;;;;;8.90;2.72;;;37.70;48.10;;;;;;5094219;28;20024;-86
2022/06/02 12:43:48;;;;;;;5.40;2.65;;;37.50;47.90;;;;;;5094393;28;20473;-86
2022/06/02 12:46:16;;;;;;;10.27;2.80;;;37.70;48.10;;;;;;5094555;28;20068;-85
2022/06/02 12:48:59;;;;;;;8.90;3.00;;;37.70;48.50;;;;;;5094307;28;20016;-85
2022/06/02 12:51:38;;;;;;;5.93;2.58;;;37.70;46.80;;;;;;5095533;28;20024;-86
2022/06/02 12:54:22;;;;;;;;;;;37.80;47.30;;;;;;5094476;28;20028;-86
2022/06/02 12:57:03;;;;;;;7.47;2.83;;;37.30;48.10;;;;;;5094136;28;19911;-86
2022/06/02 12:59:34;;;;;;;7.25;2.72;;;37.50;47.50;;;;;;5095538;28;20023;-85
2022/06/02 13:02:07;;;;;;;9.20;3.08;;;37.90;48.00;;;;;;5095499;28;20065;-86
2022/06/02 13:05:06;;;;;;;9.32;2.75;;;37.80;47.40;;;;;;5095425;28;20055;-86
2022/06/02 13:08:29;;;;;;;7.90;2.88;;;37.80;47.00;;;;;;5095320;28;20102;-86
2022/06/02 13:11:03;;;;;;;9.90;2.90;;;38.10;48.30;;;;;;5095144;28;20085;-86
2022/06/02 13:14:00;;;;;;;9.88;3.08;;;37.40;47.90;;;;;;5093847;28;20047;-85
2022/06/02 13:17:13;;;;;;;4.90;2.85;;;37.50;47.90;;;;;;5093829;28;20051;-86
2022/06/02 13:20:11;;;;;;;15.18;3.30;;;37.80;48.20;;;;;;5093953;28;20382;-86
2022/06/02 13:22:49;;;;;;;8.10;3.15;;;37.20;48.80;;;;;;5094817;28;20048;-86
2022/06/02 13:25:47;;;;;;;16.75;3.35;;;37.40;49.30;;;;;;5094735;28;20024;-85
2022/06/02 13:28:38;;;;;;;8.15;3.17;;;37.10;49.90;;;;;;5094285;28;20028;-85
2022/06/02 13:31:28;;;;;;;6.88;3.25;;;37.00;50.30;;;;;;5093524;28;20032;-86
2022/06/02 13:34:24;;;;;;;9.20;3.28;;;36.90;49.90;;;;;;5094621;28;20519;-85
2022/06/02 13:37:19;;;;;;;15.80;3.72;;;37.00;50.40;;;;;;5094731;28;20020;-85
2022/06/02 13:40:13;;;;;;;5.78;3.30;;;36.50;51.10;;;;;;5093432;28;20024;-85
2022/06/02 13:43:13;;;;;;;7.95;3.60;;;36.60;51.30;;;;;;5094603;28;20020;-86
2022/06/02 13:45:58;;;;;;;6.22;3.38;;;37.20;51.10;;;;;;5042072;28;20135;-86
2022/06/02 13:48:50;;;;;;;11.88;3.47;;;37.00;50.80;;;;;;5093326;28;20024;-85
2022/06/02 13:51:37;;;;;;;9.10;3.10;;;35.90;50.90;;;;;;5093255;28;20032;-85
2022/06/02 13:57:30;;;;;;;11.73;3.63;;;34.30;54.90;;;;;;5094761;28;20031;-85
2022/06/02 14:00:40;;;;;;;8.63;3.47;;;33.80;55.80;;;;;;5093130;28;20040;-85
2022/06/02 14:03:30;;;;;;;4.85;3.40;;;33.00;56.70;;;;;;5093067;28;20504;-85
2022/06/02 14:06:12;;;;;;;8.13;3.70;;;32.70;57.90;;;;;;5093081;28;20028;-85
2022/06/02 14:08:40;;;;;;;8.07;3.65;;;32.30;58.20;;;;;;5093363;28;20027;-85
2022/06/02 14:11:24;;;;;;;8.00;3.85;;;32.30;58.50;;;;;;5093201;28;20028;-86
2022/06/02 14:13:56;;;;;;;8.57;3.80;;;32.40;58.50;;;;;;5094406;28;20028;-85
2022/06/02 14:16:37;;;;;;;11.50;4.20;;;32.50;58.30;;;;;;5093060;28;20016;-85
2022/06/02 14:19:24;;;;;;;10.27;3.83;;;31.80;60.00;;;;;;5094101;28;20024;-86
2022/06/02 14:22:14;;;;;;;11.57;4.05;;;31.50;60.10;;;;;;5093865;28;20039;-85
2022/06/02 14:25:10;;;;;;;11.65;3.90;;;31.50;60.40;;;;;;5094047;28;20032;-85
2022/06/02 14:27:39;;;;;;;10.20;3.60;;;31.40;59.80;;;;;;5093099;28;20069;-86
2022/06/02 14:30:12;;;;;;;8.18;3.63;;;31.70;59.60;;;;;;5093139;28;20020;-86